sensor_id;sensor_type;location;lat;lon;timestamp;P1;durP1;ratioP1;P2;durP2;ratioP2
74914;SDS011;63475;45.140;-75.616;2023-08-06T00:01:44;3.90;;;1.27;;
74914;SDS011;63475;45.140;-75.616;2023-08-06T00:03:46;5.47;;;3.25;;
74914;SDS011;63475;45.140;-75.616;2023-08-06T00:05:49;4.65;;;3.05;;
74914;SDS011;63475;45.140;-75.616;2023-08-06T00:07:51;5.05;;;1.50;;
74914;SDS011;63475;45.140;-75.616;2023-08-06T00:09:54;5.65;;;2.42;;
74914;SDS011;63475;45.140;-75.616;2023-08-06T00:11:56;5.50;;;1.52;;
74914;SDS011;63475;45.140;-75.616;2023-08-06T00:13:59;5.63;;;2.72;;
74914;SDS011;63475;45.140;-75.616;2023-08-06T00:16:10;4.90;;;3.08;;
74914;SDS011;63475;45.140;-75.616;2023-08-06T00:18:14;3.72;;;2.05;;
74914;SDS011;63475;45.140;-75.616;2023-08-06T00:20:17;5.18;;;2.78;;
74914;SDS011;63475;45.140;-75.616;2023-08-06T00:22:20;6.57;;;2.88;;
74914;SDS011;63475;45.140;-75.616;2023-08-06T00:24:22;4.80;;;1.60;;
74914;SDS011;63475;45.140;-75.616;2023-08-06T00:26:25;4.80;;;3.05;;
74914;SDS011;63475;45.140;-75.616;2023-08-06T00:28:27;4.30;;;0.98;;
74914;SDS011;63475;45.140;-75.616;2023-08-06T00:30:30;4.65;;;2.50;;
74914;SDS011;63475;45.140;-75.616;2023-08-06T00:32:33;5.97;;;1.88;;
74914;SDS011;63475;45.140;-75.616;2023-08-06T00:34:36;5.90;;;2.30;;
74914;SDS011;63475;45.140;-75.616;2023-08-06T00:36:38;4.65;;;2.58;;
74914;SDS011;63475;45.140;-75.616;2023-08-06T00:38:41;5.25;;;2.70;;
74914;SDS011;63475;45.140;-75.616;2023-08-06T00:40:43;4.90;;;2.65;;
74914;SDS011;63475;45.140;-75.616;2023-08-06T00:42:46;5.35;;;3.08;;
74914;SDS011;63475;45.140;-75.616;2023-08-06T00:44:49;17.25;;;4.05;;
74914;SDS011;63475;45.140;-75.616;2023-08-06T00:46:51;5.43;;;2.58;;
74914;SDS011;63475;45.140;-75.616;2023-08-06T00:48:54;6.45;;;2.65;;
74914;SDS011;63475;45.140;-75.616;2023-08-06T00:50:58;5.65;;;2.58;;
74914;SDS011;63475;45.140;-75.616;2023-08-06T00:53:00;3.83;;;1.45;;
74914;SDS011;63475;45.140;-75.616;2023-08-06T00:55:04;6.38;;;2.05;;
74914;SDS011;63475;45.140;-75.616;2023-08-06T00:57:07;5.53;;;2.30;;
74914;SDS011;63475;45.140;-75.616;2023-08-06T00:59:11;5.95;;;2.42;;
74914;SDS011;63475;45.140;-75.616;2023-08-06T01:01:15;5.05;;;1.65;;
74914;SDS011;63475;45.140;-75.616;2023-08-06T01:03:17;4.45;;;1.63;;
74914;SDS011;63475;45.140;-75.616;2023-08-06T01:05:21;5.32;;;3.45;;
74914;SDS011;63475;45.140;-75.616;2023-08-06T01:07:32;9.45;;;4.63;;
74914;SDS011;63475;45.140;-75.616;2023-08-06T01:09:57;5.45;;;3.05;;
74914;SDS011;63475;45.140;-75.616;2023-08-06T01:12:25;5.10;;;2.55;;
74914;SDS011;63475;45.140;-75.616;2023-08-06T01:17:02;5.57;;;1.55;;
74914;SDS011;63475;45.140;-75.616;2023-08-06T01:19:15;4.10;;;1.25;;
74914;SDS011;63475;45.140;-75.616;2023-08-06T01:21:19;5.13;;;2.53;;
74914;SDS011;63475;45.140;-75.616;2023-08-06T01:23:21;5.57;;;1.55;;
74914;SDS011;63475;45.140;-75.616;2023-08-06T01:25:33;4.35;;;1.15;;
74914;SDS011;63475;45.140;-75.616;2023-08-06T01:27:44;10.18;;;5.18;;
74914;SDS011;63475;45.140;-75.616;2023-08-06T01:29:56;11.18;;;6.65;;
74914;SDS011;63475;45.140;-75.616;2023-08-06T01:32:08;11.20;;;5.13;;
74914;SDS011;63475;45.140;-75.616;2023-08-06T01:34:16;12.95;;;7.10;;
74914;SDS011;63475;45.140;-75.616;2023-08-06T01:36:22;17.08;;;10.10;;
74914;SDS011;63475;45.140;-75.616;2023-08-06T01:38:25;15.13;;;7.47;;
74914;SDS011;63475;45.140;-75.616;2023-08-06T01:40:30;16.25;;;8.35;;
74914;SDS011;63475;45.140;-75.616;2023-08-06T01:42:33;15.23;;;8.32;;
74914;SDS011;63475;45.140;-75.616;2023-08-06T01:44:36;26.38;;;13.15;;
74914;SDS011;63475;45.140;-75.616;2023-08-06T01:46:39;33.45;;;12.68;;
74914;SDS011;63475;45.140;-75.616;2023-08-06T01:48:42;31.55;;;15.98;;
74914;SDS011;63475;45.140;-75.616;2023-08-06T01:50:44;25.30;;;12.68;;
74914;SDS011;63475;45.140;-75.616;2023-08-06T01:52:47;60.97;;;20.52;;
74914;SDS011;63475;45.140;-75.616;2023-08-06T01:54:49;29.38;;;14.50;;
74914;SDS011;63475;45.140;-75.616;2023-08-06T01:56:52;15.50;;;7.65;;
74914;SDS011;63475;45.140;-75.616;2023-08-06T01:58:54;9.27;;;3.65;;
74914;SDS011;63475;45.140;-75.616;2023-08-06T02:00:57;8.80;;;3.97;;
74914;SDS011;63475;45.140;-75.616;2023-08-06T02:02:59;8.05;;;3.25;;
74914;SDS011;63475;45.140;-75.616;2023-08-06T02:05:02;27.65;;;14.60;;
74914;SDS011;63475;45.140;-75.616;2023-08-06T02:07:05;195.38;;;103.47;;
74914;SDS011;63475;45.140;-75.616;2023-08-06T02:09:07;166.45;;;87.55;;
74914;SDS011;63475;45.140;-75.616;2023-08-06T02:11:10;295.90;;;136.88;;
74914;SDS011;63475;45.140;-75.616;2023-08-06T02:13:13;257.13;;;132.68;;
74914;SDS011;63475;45.140;-75.616;2023-08-06T02:15:15;110.75;;;54.30;;
74914;SDS011;63475;45.140;-75.616;2023-08-06T02:17:18;38.55;;;16.95;;
74914;SDS011;63475;45.140;-75.616;2023-08-06T02:19:20;15.95;;;8.90;;
74914;SDS011;63475;45.140;-75.616;2023-08-06T02:21:23;101.18;;;52.03;;
74914;SDS011;63475;45.140;-75.616;2023-08-06T02:23:26;93.80;;;49.70;;
74914;SDS011;63475;45.140;-75.616;2023-08-06T02:25:28;37.13;;;19.63;;
74914;SDS011;63475;45.140;-75.616;2023-08-06T02:27:31;13.73;;;5.47;;
74914;SDS011;63475;45.140;-75.616;2023-08-06T02:29:34;11.15;;;4.70;;
74914;SDS011;63475;45.140;-75.616;2023-08-06T02:31:36;8.95;;;5.03;;
74914;SDS011;63475;45.140;-75.616;2023-08-06T02:33:39;6.13;;;3.33;;
74914;SDS011;63475;45.140;-75.616;2023-08-06T02:35:41;8.07;;;1.67;;
74914;SDS011;63475;45.140;-75.616;2023-08-06T02:37:44;6.55;;;2.40;;
74914;SDS011;63475;45.140;-75.616;2023-08-06T02:39:47;8.35;;;3.72;;
74914;SDS011;63475;45.140;-75.616;2023-08-06T02:41:49;7.65;;;2.67;;
74914;SDS011;63475;45.140;-75.616;2023-08-06T02:43:52;7.43;;;2.38;;
74914;SDS011;63475;45.140;-75.616;2023-08-06T02:45:58;5.63;;;3.08;;
74914;SDS011;63475;45.140;-75.616;2023-08-06T02:48:02;8.07;;;4.57;;
74914;SDS011;63475;45.140;-75.616;2023-08-06T02:50:05;5.47;;;3.78;;
74914;SDS011;63475;45.140;-75.616;2023-08-06T02:52:08;8.25;;;2.67;;
74914;SDS011;63475;45.140;-75.616;2023-08-06T02:54:10;7.30;;;3.20;;
74914;SDS011;63475;45.140;-75.616;2023-08-06T02:56:13;6.00;;;3.42;;
74914;SDS011;63475;45.140;-75.616;2023-08-06T02:58:15;6.18;;;2.83;;
74914;SDS011;63475;45.140;-75.616;2023-08-06T03:00:18;5.93;;;2.63;;
74914;SDS011;63475;45.140;-75.616;2023-08-06T03:02:21;7.22;;;2.80;;
74914;SDS011;63475;45.140;-75.616;2023-08-06T03:04:24;6.63;;;1.70;;
74914;SDS011;63475;45.140;-75.616;2023-08-06T03:06:26;7.68;;;2.63;;
74914;SDS011;63475;45.140;-75.616;2023-08-06T03:08:29;6.10;;;1.50;;
74914;SDS011;63475;45.140;-75.616;2023-08-06T03:10:32;7.90;;;1.63;;
74914;SDS011;63475;45.140;-75.616;2023-08-06T03:12:34;6.30;;;1.90;;
74914;SDS011;63475;45.140;-75.616;2023-08-06T03:14:37;7.15;;;2.10;;
74914;SDS011;63475;45.140;-75.616;2023-08-06T03:16:40;4.75;;;1.77;;
74914;SDS011;63475;45.140;-75.616;2023-08-06T03:18:42;5.38;;;2.65;;
74914;SDS011;63475;45.140;-75.616;2023-08-06T03:20:45;6.70;;;3.03;;
74914;SDS011;63475;45.140;-75.616;2023-08-06T03:22:47;8.77;;;3.08;;
74914;SDS011;63475;45.140;-75.616;2023-08-06T03:24:50;6.95;;;1.13;;
74914;SDS011;63475;45.140;-75.616;2023-08-06T03:26:53;6.25;;;1.85;;
74914;SDS011;63475;45.140;-75.616;2023-08-06T03:28:56;5.95;;;2.67;;
74914;SDS011;63475;45.140;-75.616;2023-08-06T03:31:02;6.97;;;2.65;;
74914;SDS011;63475;45.140;-75.616;2023-08-06T03:33:05;6.07;;;3.22;;
74914;SDS011;63475;45.140;-75.616;2023-08-06T03:35:08;5.55;;;1.40;;
74914;SDS011;63475;45.140;-75.616;2023-08-06T03:37:10;4.22;;;2.13;;
74914;SDS011;63475;45.140;-75.616;2023-08-06T03:39:13;5.57;;;1.52;;
74914;SDS011;63475;45.140;-75.616;2023-08-06T03:41:16;8.95;;;3.72;;
74914;SDS011;63475;45.140;-75.616;2023-08-06T03:43:18;5.00;;;2.50;;
74914;SDS011;63475;45.140;-75.616;2023-08-06T03:45:21;6.78;;;2.95;;
74914;SDS011;63475;45.140;-75.616;2023-08-06T03:47:24;5.60;;;2.83;;
74914;SDS011;63475;45.140;-75.616;2023-08-06T03:49:26;7.72;;;3.42;;
74914;SDS011;63475;45.140;-75.616;2023-08-06T03:51:29;8.55;;;2.65;;
74914;SDS011;63475;45.140;-75.616;2023-08-06T03:53:31;10.93;;;3.95;;
74914;SDS011;63475;45.140;-75.616;2023-08-06T03:55:34;10.25;;;2.92;;
74914;SDS011;63475;45.140;-75.616;2023-08-06T03:57:36;20.23;;;6.45;;
74914;SDS011;63475;45.140;-75.616;2023-08-06T03:59:39;10.93;;;3.10;;
74914;SDS011;63475;45.140;-75.616;2023-08-06T04:01:42;8.68;;;2.50;;
74914;SDS011;63475;45.140;-75.616;2023-08-06T04:03:45;10.13;;;4.90;;
74914;SDS011;63475;45.140;-75.616;2023-08-06T04:05:48;6.35;;;2.10;;
74914;SDS011;63475;45.140;-75.616;2023-08-06T04:07:50;7.93;;;2.55;;
74914;SDS011;63475;45.140;-75.616;2023-08-06T04:09:53;8.88;;;2.53;;
74914;SDS011;63475;45.140;-75.616;2023-08-06T04:11:57;6.53;;;3.25;;
74914;SDS011;63475;45.140;-75.616;2023-08-06T04:14:00;10.70;;;5.47;;
74914;SDS011;63475;45.140;-75.616;2023-08-06T04:16:03;10.60;;;3.78;;
74914;SDS011;63475;45.140;-75.616;2023-08-06T04:18:06;9.93;;;4.95;;
74914;SDS011;63475;45.140;-75.616;2023-08-06T04:20:09;8.85;;;4.40;;
74914;SDS011;63475;45.140;-75.616;2023-08-06T04:22:11;6.47;;;2.90;;
74914;SDS011;63475;45.140;-75.616;2023-08-06T04:24:14;6.93;;;3.80;;
74914;SDS011;63475;45.140;-75.616;2023-08-06T04:26:16;15.52;;;3.88;;
74914;SDS011;63475;45.140;-75.616;2023-08-06T04:28:19;16.83;;;6.53;;
74914;SDS011;63475;45.140;-75.616;2023-08-06T04:30:22;12.93;;;6.30;;
74914;SDS011;63475;45.140;-75.616;2023-08-06T04:32:24;8.20;;;5.40;;
74914;SDS011;63475;45.140;-75.616;2023-08-06T04:34:28;10.23;;;4.45;;
74914;SDS011;63475;45.140;-75.616;2023-08-06T04:36:31;10.75;;;3.67;;
74914;SDS011;63475;45.140;-75.616;2023-08-06T04:38:33;19.17;;;5.68;;
74914;SDS011;63475;45.140;-75.616;2023-08-06T04:40:36;7.40;;;2.55;;
74914;SDS011;63475;45.140;-75.616;2023-08-06T04:42:39;7.15;;;3.85;;
74914;SDS011;63475;45.140;-75.616;2023-08-06T04:44:41;5.65;;;2.55;;
74914;SDS011;63475;45.140;-75.616;2023-08-06T04:46:44;6.93;;;2.80;;
74914;SDS011;63475;45.140;-75.616;2023-08-06T04:48:46;16.90;;;6.78;;
74914;SDS011;63475;45.140;-75.616;2023-08-06T04:50:49;14.85;;;5.50;;
74914;SDS011;63475;45.140;-75.616;2023-08-06T04:52:52;11.02;;;5.45;;
74914;SDS011;63475;45.140;-75.616;2023-08-06T04:54:55;8.32;;;2.58;;
74914;SDS011;63475;45.140;-75.616;2023-08-06T04:56:57;17.40;;;4.47;;
74914;SDS011;63475;45.140;-75.616;2023-08-06T04:59:00;17.02;;;6.03;;
74914;SDS011;63475;45.140;-75.616;2023-08-06T05:01:02;8.10;;;2.70;;
74914;SDS011;63475;45.140;-75.616;2023-08-06T05:03:05;5.05;;;1.85;;
74914;SDS011;63475;45.140;-75.616;2023-08-06T05:05:08;6.50;;;2.17;;
74914;SDS011;63475;45.140;-75.616;2023-08-06T05:07:10;8.18;;;2.17;;
74914;SDS011;63475;45.140;-75.616;2023-08-06T05:09:13;9.70;;;2.95;;
74914;SDS011;63475;45.140;-75.616;2023-08-06T05:11:16;19.17;;;5.97;;
74914;SDS011;63475;45.140;-75.616;2023-08-06T05:13:18;11.95;;;4.10;;
74914;SDS011;63475;45.140;-75.616;2023-08-06T05:15:21;9.25;;;3.53;;
74914;SDS011;63475;45.140;-75.616;2023-08-06T05:17:23;8.30;;;3.33;;
74914;SDS011;63475;45.140;-75.616;2023-08-06T05:19:26;9.73;;;2.20;;
74914;SDS011;63475;45.140;-75.616;2023-08-06T05:21:28;8.88;;;2.13;;
74914;SDS011;63475;45.140;-75.616;2023-08-06T05:23:31;5.82;;;1.75;;
74914;SDS011;63475;45.140;-75.616;2023-08-06T05:25:34;8.18;;;3.85;;
74914;SDS011;63475;45.140;-75.616;2023-08-06T05:27:37;6.90;;;1.95;;
74914;SDS011;63475;45.140;-75.616;2023-08-06T05:29:40;6.63;;;1.88;;
74914;SDS011;63475;45.140;-75.616;2023-08-06T05:31:42;5.57;;;1.38;;
74914;SDS011;63475;45.140;-75.616;2023-08-06T05:33:45;5.78;;;3.00;;
74914;SDS011;63475;45.140;-75.616;2023-08-06T05:35:48;7.63;;;3.08;;
74914;SDS011;63475;45.140;-75.616;2023-08-06T05:37:52;5.25;;;1.63;;
74914;SDS011;63475;45.140;-75.616;2023-08-06T05:39:55;5.57;;;1.55;;
74914;SDS011;63475;45.140;-75.616;2023-08-06T05:41:57;6.78;;;2.70;;
74914;SDS011;63475;45.140;-75.616;2023-08-06T05:44:00;6.70;;;3.33;;
74914;SDS011;63475;45.140;-75.616;2023-08-06T05:46:04;9.15;;;1.80;;
74914;SDS011;63475;45.140;-75.616;2023-08-06T05:48:07;6.50;;;3.55;;
74914;SDS011;63475;45.140;-75.616;2023-08-06T05:50:10;6.15;;;2.47;;
74914;SDS011;63475;45.140;-75.616;2023-08-06T05:52:13;5.82;;;1.73;;
74914;SDS011;63475;45.140;-75.616;2023-08-06T05:54:15;7.20;;;1.90;;
74914;SDS011;63475;45.140;-75.616;2023-08-06T05:56:18;4.85;;;1.50;;
74914;SDS011;63475;45.140;-75.616;2023-08-06T05:58:20;5.15;;;2.15;;
74914;SDS011;63475;45.140;-75.616;2023-08-06T06:00:23;3.88;;;1.10;;
74914;SDS011;63475;45.140;-75.616;2023-08-06T06:02:26;3.97;;;1.48;;
74914;SDS011;63475;45.140;-75.616;2023-08-06T06:04:28;5.15;;;2.42;;
74914;SDS011;63475;45.140;-75.616;2023-08-06T06:06:31;5.20;;;2.63;;
74914;SDS011;63475;45.140;-75.616;2023-08-06T06:08:34;4.70;;;2.03;;
74914;SDS011;63475;45.140;-75.616;2023-08-06T06:10:36;4.75;;;1.42;;
74914;SDS011;63475;45.140;-75.616;2023-08-06T06:12:40;4.32;;;1.95;;
74914;SDS011;63475;45.140;-75.616;2023-08-06T06:14:42;5.63;;;2.25;;
74914;SDS011;63475;45.140;-75.616;2023-08-06T06:16:45;3.92;;;1.15;;
74914;SDS011;63475;45.140;-75.616;2023-08-06T06:18:48;3.90;;;1.92;;
74914;SDS011;63475;45.140;-75.616;2023-08-06T06:20:51;4.40;;;0.98;;
74914;SDS011;63475;45.140;-75.616;2023-08-06T06:22:53;4.95;;;2.85;;
74914;SDS011;63475;45.140;-75.616;2023-08-06T06:24:56;3.90;;;1.10;;
74914;SDS011;63475;45.140;-75.616;2023-08-06T06:26:58;5.13;;;2.28;;
74914;SDS011;63475;45.140;-75.616;2023-08-06T06:29:01;4.90;;;1.33;;
74914;SDS011;63475;45.140;-75.616;2023-08-06T06:31:05;6.70;;;1.77;;
74914;SDS011;63475;45.140;-75.616;2023-08-06T06:33:08;5.15;;;1.30;;
74914;SDS011;63475;45.140;-75.616;2023-08-06T06:35:12;5.65;;;1.70;;
74914;SDS011;63475;45.140;-75.616;2023-08-06T06:37:14;5.38;;;1.60;;
74914;SDS011;63475;45.140;-75.616;2023-08-06T06:39:17;7.20;;;1.30;;
74914;SDS011;63475;45.140;-75.616;2023-08-06T06:41:20;4.50;;;1.45;;
74914;SDS011;63475;45.140;-75.616;2023-08-06T06:43:22;4.43;;;2.67;;
74914;SDS011;63475;45.140;-75.616;2023-08-06T06:45:26;5.47;;;1.15;;
74914;SDS011;63475;45.140;-75.616;2023-08-06T06:47:28;3.13;;;0.93;;
74914;SDS011;63475;45.140;-75.616;2023-08-06T06:49:31;5.22;;;2.35;;
74914;SDS011;63475;45.140;-75.616;2023-08-06T06:51:34;4.18;;;1.35;;
74914;SDS011;63475;45.140;-75.616;2023-08-06T06:53:38;3.05;;;0.98;;
74914;SDS011;63475;45.140;-75.616;2023-08-06T06:55:41;5.57;;;1.27;;
74914;SDS011;63475;45.140;-75.616;2023-08-06T06:57:43;5.70;;;1.60;;
74914;SDS011;63475;45.140;-75.616;2023-08-06T06:59:46;4.75;;;2.30;;
74914;SDS011;63475;45.140;-75.616;2023-08-06T07:01:48;4.68;;;2.38;;
74914;SDS011;63475;45.140;-75.616;2023-08-06T07:03:51;6.22;;;2.38;;
74914;SDS011;63475;45.140;-75.616;2023-08-06T07:05:57;4.50;;;1.67;;
74914;SDS011;63475;45.140;-75.616;2023-08-06T07:08:02;4.70;;;1.75;;
74914;SDS011;63475;45.140;-75.616;2023-08-06T07:10:05;4.63;;;1.45;;
74914;SDS011;63475;45.140;-75.616;2023-08-06T07:12:08;4.25;;;2.28;;
74914;SDS011;63475;45.140;-75.616;2023-08-06T07:14:11;6.38;;;1.38;;
74914;SDS011;63475;45.140;-75.616;2023-08-06T07:16:13;5.22;;;2.50;;
74914;SDS011;63475;45.140;-75.616;2023-08-06T07:18:16;5.00;;;2.38;;
74914;SDS011;63475;45.140;-75.616;2023-08-06T07:20:18;5.20;;;2.53;;
74914;SDS011;63475;45.140;-75.616;2023-08-06T07:22:21;6.05;;;2.50;;
74914;SDS011;63475;45.140;-75.616;2023-08-06T07:24:23;5.32;;;2.47;;
74914;SDS011;63475;45.140;-75.616;2023-08-06T07:26:26;4.47;;;2.33;;
74914;SDS011;63475;45.140;-75.616;2023-08-06T07:28:29;3.85;;;1.20;;
74914;SDS011;63475;45.140;-75.616;2023-08-06T07:30:31;4.85;;;2.33;;
74914;SDS011;63475;45.140;-75.616;2023-08-06T07:32:34;7.18;;;1.85;;
74914;SDS011;63475;45.140;-75.616;2023-08-06T07:34:37;6.10;;;2.45;;
74914;SDS011;63475;45.140;-75.616;2023-08-06T07:36:39;5.07;;;2.50;;
74914;SDS011;63475;45.140;-75.616;2023-08-06T07:38:42;4.70;;;1.55;;
74914;SDS011;63475;45.140;-75.616;2023-08-06T07:40:45;4.97;;;1.45;;
74914;SDS011;63475;45.140;-75.616;2023-08-06T07:42:47;4.80;;;1.85;;
74914;SDS011;63475;45.140;-75.616;2023-08-06T07:44:59;4.03;;;1.20;;
74914;SDS011;63475;45.140;-75.616;2023-08-06T07:47:01;6.45;;;2.88;;
74914;SDS011;63475;45.140;-75.616;2023-08-06T07:49:04;5.30;;;1.30;;
74914;SDS011;63475;45.140;-75.616;2023-08-06T07:51:06;5.43;;;1.63;;
74914;SDS011;63475;45.140;-75.616;2023-08-06T07:53:09;5.72;;;1.52;;
74914;SDS011;63475;45.140;-75.616;2023-08-06T07:55:11;4.18;;;1.25;;
74914;SDS011;63475;45.140;-75.616;2023-08-06T07:57:14;9.77;;;1.90;;
74914;SDS011;63475;45.140;-75.616;2023-08-06T07:59:17;6.88;;;1.52;;
74914;SDS011;63475;45.140;-75.616;2023-08-06T08:01:19;4.82;;;1.35;;
74914;SDS011;63475;45.140;-75.616;2023-08-06T08:03:22;4.95;;;2.22;;
74914;SDS011;63475;45.140;-75.616;2023-08-06T08:05:25;4.80;;;1.40;;
74914;SDS011;63475;45.140;-75.616;2023-08-06T08:07:27;5.35;;;1.58;;
74914;SDS011;63475;45.140;-75.616;2023-08-06T08:09:32;4.28;;;1.20;;
74914;SDS011;63475;45.140;-75.616;2023-08-06T08:11:37;4.05;;;1.65;;
74914;SDS011;63475;45.140;-75.616;2023-08-06T08:13:40;4.50;;;1.63;;
74914;SDS011;63475;45.140;-75.616;2023-08-06T08:15:42;3.47;;;1.00;;
74914;SDS011;63475;45.140;-75.616;2023-08-06T08:17:45;5.50;;;1.83;;
74914;SDS011;63475;45.140;-75.616;2023-08-06T08:19:49;4.22;;;1.05;;
74914;SDS011;63475;45.140;-75.616;2023-08-06T08:21:52;6.32;;;2.92;;
74914;SDS011;63475;45.140;-75.616;2023-08-06T08:23:55;7.45;;;1.85;;
74914;SDS011;63475;45.140;-75.616;2023-08-06T08:25:57;5.00;;;2.38;;
74914;SDS011;63475;45.140;-75.616;2023-08-06T08:28:00;5.75;;;2.38;;
74914;SDS011;63475;45.140;-75.616;2023-08-06T08:30:03;5.32;;;1.73;;
74914;SDS011;63475;45.140;-75.616;2023-08-06T08:32:05;5.60;;;2.78;;
74914;SDS011;63475;45.140;-75.616;2023-08-06T08:34:08;8.90;;;3.33;;
74914;SDS011;63475;45.140;-75.616;2023-08-06T08:36:11;4.55;;;2.53;;
74914;SDS011;63475;45.140;-75.616;2023-08-06T08:38:13;5.18;;;1.38;;
74914;SDS011;63475;45.140;-75.616;2023-08-06T08:40:16;7.88;;;2.80;;
74914;SDS011;63475;45.140;-75.616;2023-08-06T08:42:19;6.32;;;2.60;;
74914;SDS011;63475;45.140;-75.616;2023-08-06T08:44:21;7.15;;;2.17;;
74914;SDS011;63475;45.140;-75.616;2023-08-06T08:46:26;6.10;;;1.33;;
74914;SDS011;63475;45.140;-75.616;2023-08-06T08:48:35;7.35;;;1.45;;
74914;SDS011;63475;45.140;-75.616;2023-08-06T08:50:38;5.10;;;2.00;;
74914;SDS011;63475;45.140;-75.616;2023-08-06T08:52:42;4.93;;;2.28;;
74914;SDS011;63475;45.140;-75.616;2023-08-06T08:54:47;4.60;;;2.60;;
74914;SDS011;63475;45.140;-75.616;2023-08-06T08:56:53;3.65;;;2.00;;
74914;SDS011;63475;45.140;-75.616;2023-08-06T08:58:57;4.80;;;1.55;;
74914;SDS011;63475;45.140;-75.616;2023-08-06T09:00:59;5.13;;;2.28;;
74914;SDS011;63475;45.140;-75.616;2023-08-06T09:03:05;5.65;;;1.67;;
74914;SDS011;63475;45.140;-75.616;2023-08-06T09:05:08;5.78;;;1.35;;
74914;SDS011;63475;45.140;-75.616;2023-08-06T09:07:13;5.85;;;1.58;;
74914;SDS011;63475;45.140;-75.616;2023-08-06T09:09:26;5.55;;;1.40;;
74914;SDS011;63475;45.140;-75.616;2023-08-06T09:11:35;5.15;;;2.33;;
74914;SDS011;63475;45.140;-75.616;2023-08-06T09:13:44;5.93;;;3.60;;
74914;SDS011;63475;45.140;-75.616;2023-08-06T09:15:47;7.95;;;2.25;;
74914;SDS011;63475;45.140;-75.616;2023-08-06T09:17:54;5.00;;;2.33;;
74914;SDS011;63475;45.140;-75.616;2023-08-06T09:21:59;8.73;;;1.52;;
74914;SDS011;63475;45.140;-75.616;2023-08-06T09:24:06;5.05;;;1.05;;
74914;SDS011;63475;45.140;-75.616;2023-08-06T09:26:13;3.90;;;1.15;;
74914;SDS011;63475;45.140;-75.616;2023-08-06T09:28:17;4.22;;;1.20;;
74914;SDS011;63475;45.140;-75.616;2023-08-06T09:30:35;4.60;;;2.55;;
74914;SDS011;63475;45.140;-75.616;2023-08-06T09:32:45;4.53;;;2.42;;
74914;SDS011;63475;45.140;-75.616;2023-08-06T09:34:54;6.50;;;1.67;;
74914;SDS011;63475;45.140;-75.616;2023-08-06T09:36:58;5.07;;;2.22;;
74914;SDS011;63475;45.140;-75.616;2023-08-06T09:39:01;5.65;;;1.63;;
74914;SDS011;63475;45.140;-75.616;2023-08-06T09:41:27;4.00;;;2.38;;
74914;SDS011;63475;45.140;-75.616;2023-08-06T09:43:42;4.25;;;2.40;;
74914;SDS011;63475;45.140;-75.616;2023-08-06T09:45:45;4.63;;;1.55;;
74914;SDS011;63475;45.140;-75.616;2023-08-06T09:47:48;4.95;;;2.15;;
74914;SDS011;63475;45.140;-75.616;2023-08-06T09:49:52;7.00;;;3.75;;
74914;SDS011;63475;45.140;-75.616;2023-08-06T09:51:54;4.65;;;1.30;;
74914;SDS011;63475;45.140;-75.616;2023-08-06T09:54:00;4.70;;;1.20;;
74914;SDS011;63475;45.140;-75.616;2023-08-06T09:56:13;4.97;;;1.52;;
74914;SDS011;63475;45.140;-75.616;2023-08-06T09:58:20;3.70;;;1.15;;
74914;SDS011;63475;45.140;-75.616;2023-08-06T10:02:27;3.97;;;1.15;;
74914;SDS011;63475;45.140;-75.616;2023-08-06T10:04:31;5.50;;;1.08;;
74914;SDS011;63475;45.140;-75.616;2023-08-06T10:06:42;4.95;;;1.42;;
74914;SDS011;63475;45.140;-75.616;2023-08-06T10:08:48;4.47;;;1.50;;
74914;SDS011;63475;45.140;-75.616;2023-08-06T10:10:50;4.18;;;1.15;;
74914;SDS011;63475;45.140;-75.616;2023-08-06T10:12:55;6.40;;;2.28;;
74914;SDS011;63475;45.140;-75.616;2023-08-06T10:15:01;5.22;;;1.67;;
74914;SDS011;63475;45.140;-75.616;2023-08-06T10:17:08;4.60;;;2.17;;
74914;SDS011;63475;45.140;-75.616;2023-08-06T10:19:12;5.28;;;1.52;;
74914;SDS011;63475;45.140;-75.616;2023-08-06T10:21:15;8.18;;;2.58;;
74914;SDS011;63475;45.140;-75.616;2023-08-06T10:23:18;5.38;;;1.60;;
74914;SDS011;63475;45.140;-75.616;2023-08-06T10:25:22;4.35;;;1.67;;
74914;SDS011;63475;45.140;-75.616;2023-08-06T10:27:33;5.03;;;1.38;;
74914;SDS011;63475;45.140;-75.616;2023-08-06T10:29:36;4.63;;;1.38;;
74914;SDS011;63475;45.140;-75.616;2023-08-06T10:31:55;5.03;;;1.20;;
74914;SDS011;63475;45.140;-75.616;2023-08-06T10:34:02;6.18;;;2.40;;
74914;SDS011;63475;45.140;-75.616;2023-08-06T10:36:04;6.05;;;2.80;;
74914;SDS011;63475;45.140;-75.616;2023-08-06T10:38:14;4.35;;;2.15;;
74914;SDS011;63475;45.140;-75.616;2023-08-06T10:40:21;5.50;;;2.83;;
74914;SDS011;63475;45.140;-75.616;2023-08-06T10:42:29;5.68;;;2.35;;
74914;SDS011;63475;45.140;-75.616;2023-08-06T10:44:32;4.93;;;2.42;;
74914;SDS011;63475;45.140;-75.616;2023-08-06T10:46:38;4.10;;;2.05;;
74914;SDS011;63475;45.140;-75.616;2023-08-06T10:48:41;4.75;;;2.85;;
74914;SDS011;63475;45.140;-75.616;2023-08-06T10:50:47;4.55;;;1.27;;
74914;SDS011;63475;45.140;-75.616;2023-08-06T10:52:50;6.50;;;2.67;;
74914;SDS011;63475;45.140;-75.616;2023-08-06T10:54:53;5.72;;;2.17;;
74914;SDS011;63475;45.140;-75.616;2023-08-06T10:56:57;4.85;;;2.33;;
74914;SDS011;63475;45.140;-75.616;2023-08-06T10:58:59;5.13;;;2.45;;
74914;SDS011;63475;45.140;-75.616;2023-08-06T11:01:02;5.45;;;2.25;;
74914;SDS011;63475;45.140;-75.616;2023-08-06T11:03:05;6.10;;;2.58;;
74914;SDS011;63475;45.140;-75.616;2023-08-06T11:05:08;4.13;;;1.30;;
74914;SDS011;63475;45.140;-75.616;2023-08-06T11:07:13;4.40;;;1.13;;
74914;SDS011;63475;45.140;-75.616;2023-08-06T11:09:18;5.68;;;2.67;;
74914;SDS011;63475;45.140;-75.616;2023-08-06T11:11:22;5.10;;;1.50;;
74914;SDS011;63475;45.140;-75.616;2023-08-06T11:13:25;5.25;;;1.55;;
74914;SDS011;63475;45.140;-75.616;2023-08-06T11:15:29;5.63;;;2.50;;
74914;SDS011;63475;45.140;-75.616;2023-08-06T11:17:33;5.55;;;2.58;;
74914;SDS011;63475;45.140;-75.616;2023-08-06T11:19:37;4.65;;;2.35;;
74914;SDS011;63475;45.140;-75.616;2023-08-06T11:21:39;6.20;;;3.03;;
74914;SDS011;63475;45.140;-75.616;2023-08-06T11:23:42;7.43;;;1.30;;
74914;SDS011;63475;45.140;-75.616;2023-08-06T11:25:44;5.43;;;2.40;;
74914;SDS011;63475;45.140;-75.616;2023-08-06T11:27:47;4.90;;;2.63;;
74914;SDS011;63475;45.140;-75.616;2023-08-06T11:29:50;4.55;;;2.60;;
74914;SDS011;63475;45.140;-75.616;2023-08-06T11:31:53;6.60;;;3.25;;
74914;SDS011;63475;45.140;-75.616;2023-08-06T11:34:05;4.72;;;2.38;;
74914;SDS011;63475;45.140;-75.616;2023-08-06T11:36:08;6.53;;;2.05;;
74914;SDS011;63475;45.140;-75.616;2023-08-06T11:38:11;4.88;;;2.60;;
74914;SDS011;63475;45.140;-75.616;2023-08-06T11:40:17;5.90;;;2.72;;
74914;SDS011;63475;45.140;-75.616;2023-08-06T11:42:20;6.25;;;3.22;;
74914;SDS011;63475;45.140;-75.616;2023-08-06T11:44:23;5.65;;;1.50;;
74914;SDS011;63475;45.140;-75.616;2023-08-06T11:46:26;5.63;;;2.65;;
74914;SDS011;63475;45.140;-75.616;2023-08-06T11:48:29;5.32;;;3.70;;
74914;SDS011;63475;45.140;-75.616;2023-08-06T11:50:35;6.05;;;1.85;;
74914;SDS011;63475;45.140;-75.616;2023-08-06T11:52:40;5.50;;;3.58;;
74914;SDS011;63475;45.140;-75.616;2023-08-06T11:54:44;4.60;;;1.50;;
74914;SDS011;63475;45.140;-75.616;2023-08-06T11:56:50;7.10;;;3.58;;
74914;SDS011;63475;45.140;-75.616;2023-08-06T11:58:52;7.88;;;2.83;;
74914;SDS011;63475;45.140;-75.616;2023-08-06T12:00:56;5.55;;;1.83;;
74914;SDS011;63475;45.140;-75.616;2023-08-06T12:03:00;4.65;;;2.15;;
74914;SDS011;63475;45.140;-75.616;2023-08-06T12:05:04;5.88;;;2.75;;
74914;SDS011;63475;45.140;-75.616;2023-08-06T12:07:07;7.97;;;3.08;;
74914;SDS011;63475;45.140;-75.616;2023-08-06T12:09:10;7.45;;;3.97;;